Alcasser, Spain
Current Conditions -  °F | °C
As of 4:00 AM on Friday 28 Nov 2014 (Local Time) from LEVC Reporting Station
Drizzle Drizzle  
Wind Chill: 55°   Ceiling: 6000
Heat Index: 55°   Visibility: 1.8mi
Dew Point: 55°   Wind: 1mph
Humidity: 100%   Direction: NA
Pressure: 29.32"   Gusts: NA
Location:  39.37°N, 0.43°W
Report Text: LEVC 280300Z VRB01KT 3000 BR -DZ SCT015 BKN060 13/13 Q0993 NOSIG
Loading
Personal Weather Stations






























Interactive Weather Map New forecast layout! Learn more

10-Day Weather Forecast

Advertisements
Track Severe Weather on mobile